sensor_id;sensor_type;location;lat;lon;timestamp;P1;durP1;ratioP1;P2;durP2;ratioP2
36379;SDS011;22411;53.016;18.632;2023-02-08T00:00:21;52.60;;;25.30;;
36379;SDS011;22411;53.016;18.632;2023-02-08T00:03:08;42.07;;;21.70;;
36379;SDS011;22411;53.016;18.632;2023-02-08T00:05:34;39.83;;;22.97;;
36379;SDS011;22411;53.016;18.632;2023-02-08T00:08:00;38.90;;;21.43;;
36379;SDS011;22411;53.016;18.632;2023-02-08T00:10:26;43.33;;;24.50;;
36379;SDS011;22411;53.016;18.632;2023-02-08T00:12:52;41.37;;;21.53;;
36379;SDS011;22411;53.016;18.632;2023-02-08T00:15:18;36.03;;;21.10;;
36379;SDS011;22411;53.016;18.632;2023-02-08T00:17:44;34.17;;;19.70;;
36379;SDS011;22411;53.016;18.632;2023-02-08T00:20:11;38.83;;;19.33;;
36379;SDS011;22411;53.016;18.632;2023-02-08T00:22:37;28.40;;;17.67;;
36379;SDS011;22411;53.016;18.632;2023-02-08T00:25:04;29.43;;;16.73;;
36379;SDS011;22411;53.016;18.632;2023-02-08T00:27:31;30.77;;;18.40;;
36379;SDS011;22411;53.016;18.632;2023-02-08T00:29:57;27.83;;;16.10;;
36379;SDS011;22411;53.016;18.632;2023-02-08T00:32:23;28.63;;;16.67;;
36379;SDS011;22411;53.016;18.632;2023-02-08T00:34:49;28.53;;;16.40;;
36379;SDS011;22411;53.016;18.632;2023-02-08T00:37:15;27.13;;;15.67;;
36379;SDS011;22411;53.016;18.632;2023-02-08T00:39:42;29.03;;;15.80;;
36379;SDS011;22411;53.016;18.632;2023-02-08T00:42:08;30.50;;;17.70;;
36379;SDS011;22411;53.016;18.632;2023-02-08T00:44:34;28.47;;;16.87;;
36379;SDS011;22411;53.016;18.632;2023-02-08T00:47:00;29.63;;;16.43;;
36379;SDS011;22411;53.016;18.632;2023-02-08T00:49:26;26.60;;;16.03;;
36379;SDS011;22411;53.016;18.632;2023-02-08T00:51:52;32.97;;;17.17;;
36379;SDS011;22411;53.016;18.632;2023-02-08T00:54:19;26.03;;;16.87;;
36379;SDS011;22411;53.016;18.632;2023-02-08T00:56:45;48.17;;;28.43;;
36379;SDS011;22411;53.016;18.632;2023-02-08T00:59:12;34.53;;;20.03;;
36379;SDS011;22411;53.016;18.632;2023-02-08T01:01:38;27.07;;;16.77;;
36379;SDS011;22411;53.016;18.632;2023-02-08T01:04:05;30.33;;;17.40;;
36379;SDS011;22411;53.016;18.632;2023-02-08T01:06:31;26.10;;;16.20;;
36379;SDS011;22411;53.016;18.632;2023-02-08T01:08:58;28.20;;;17.13;;
36379;SDS011;22411;53.016;18.632;2023-02-08T01:11:24;28.77;;;18.23;;
36379;SDS011;22411;53.016;18.632;2023-02-08T01:13:52;32.40;;;19.07;;
36379;SDS011;22411;53.016;18.632;2023-02-08T01:16:29;29.65;;;17.67;;
36379;SDS011;22411;53.016;18.632;2023-02-08T01:18:57;35.10;;;18.83;;
36379;SDS011;22411;53.016;18.632;2023-02-08T01:21:26;36.20;;;21.07;;
36379;SDS011;22411;53.016;18.632;2023-02-08T01:23:53;45.17;;;25.90;;
36379;SDS011;22411;53.016;18.632;2023-02-08T01:26:20;34.07;;;20.07;;
36379;SDS011;22411;53.016;18.632;2023-02-08T01:28:48;36.87;;;20.23;;
36379;SDS011;22411;53.016;18.632;2023-02-08T01:31:16;38.93;;;24.17;;
36379;SDS011;22411;53.016;18.632;2023-02-08T01:33:44;38.10;;;22.03;;
36379;SDS011;22411;53.016;18.632;2023-02-08T01:36:10;36.47;;;22.70;;
36379;SDS011;22411;53.016;18.632;2023-02-08T01:38:36;44.63;;;26.90;;
36379;SDS011;22411;53.016;18.632;2023-02-08T01:41:03;37.17;;;21.57;;
36379;SDS011;22411;53.016;18.632;2023-02-08T01:43:34;38.50;;;22.40;;
36379;SDS011;22411;53.016;18.632;2023-02-08T01:46:40;39.80;;;20.97;;
36379;SDS011;22411;53.016;18.632;2023-02-08T01:49:09;34.40;;;20.65;;
36379;SDS011;22411;53.016;18.632;2023-02-08T01:52:08;29.90;;;17.77;;
36379;SDS011;22411;53.016;18.632;2023-02-08T01:54:43;34.83;;;19.97;;
36379;SDS011;22411;53.016;18.632;2023-02-08T01:57:15;31.13;;;20.40;;
36379;SDS011;22411;53.016;18.632;2023-02-08T02:00:03;32.60;;;19.20;;
36379;SDS011;22411;53.016;18.632;2023-02-08T02:02:32;33.87;;;18.13;;
36379;SDS011;22411;53.016;18.632;2023-02-08T02:05:02;28.90;;;17.53;;
36379;SDS011;22411;53.016;18.632;2023-02-08T02:07:28;32.97;;;18.90;;
36379;SDS011;22411;53.016;18.632;2023-02-08T02:12:43;27.60;;;17.27;;
36379;SDS011;22411;53.016;18.632;2023-02-08T02:15:10;30.73;;;17.60;;
36379;SDS011;22411;53.016;18.632;2023-02-08T02:17:36;29.20;;;16.23;;
36379;SDS011;22411;53.016;18.632;2023-02-08T02:20:08;36.27;;;18.13;;
36379;SDS011;22411;53.016;18.632;2023-02-08T02:36:16;28.40;;;16.13;;
36379;SDS011;22411;53.016;18.632;2023-02-08T02:44:50;30.03;;;15.53;;
36379;SDS011;22411;53.016;18.632;2023-02-08T02:47:35;27.97;;;15.47;;
36379;SDS011;22411;53.016;18.632;2023-02-08T02:50:28;24.80;;;13.57;;
36379;SDS011;22411;53.016;18.632;2023-02-08T02:53:22;27.10;;;14.40;;
36379;SDS011;22411;53.016;18.632;2023-02-08T02:56:11;28.08;;;14.30;;
36379;SDS011;22411;53.016;18.632;2023-02-08T02:58:42;27.37;;;14.50;;
36379;SDS011;22411;53.016;18.632;2023-02-08T03:01:09;25.70;;;16.20;;
36379;SDS011;22411;53.016;18.632;2023-02-08T03:03:35;28.53;;;14.40;;
36379;SDS011;22411;53.016;18.632;2023-02-08T03:06:14;26.73;;;13.77;;
36379;SDS011;22411;53.016;18.632;2023-02-08T03:09:05;28.57;;;15.77;;
36379;SDS011;22411;53.016;18.632;2023-02-08T03:11:47;27.03;;;15.40;;
36379;SDS011;22411;53.016;18.632;2023-02-08T03:14:26;26.60;;;14.77;;
36379;SDS011;22411;53.016;18.632;2023-02-08T03:20:02;31.03;;;13.17;;
36379;SDS011;22411;53.016;18.632;2023-02-08T03:25:22;18.87;;;10.70;;
36379;SDS011;22411;53.016;18.632;2023-02-08T03:28:17;19.20;;;10.97;;
36379;SDS011;22411;53.016;18.632;2023-02-08T03:30:49;23.10;;;12.43;;
36379;SDS011;22411;53.016;18.632;2023-02-08T03:33:28;19.80;;;12.07;;
36379;SDS011;22411;53.016;18.632;2023-02-08T03:38:59;21.33;;;12.57;;
36379;SDS011;22411;53.016;18.632;2023-02-08T03:41:33;21.37;;;11.57;;
36379;SDS011;22411;53.016;18.632;2023-02-08T03:44:22;17.20;;;10.30;;
36379;SDS011;22411;53.016;18.632;2023-02-08T03:46:59;21.27;;;10.80;;
36379;SDS011;22411;53.016;18.632;2023-02-08T03:49:34;22.07;;;11.93;;
36379;SDS011;22411;53.016;18.632;2023-02-08T03:52:03;20.43;;;12.27;;
36379;SDS011;22411;53.016;18.632;2023-02-08T03:54:42;16.20;;;9.90;;
36379;SDS011;22411;53.016;18.632;2023-02-08T03:57:18;22.42;;;11.23;;
36379;SDS011;22411;53.016;18.632;2023-02-08T03:59:54;17.87;;;11.00;;
36379;SDS011;22411;53.016;18.632;2023-02-08T04:02:22;24.93;;;14.17;;
36379;SDS011;22411;53.016;18.632;2023-02-08T04:04:52;16.77;;;10.93;;
36379;SDS011;22411;53.016;18.632;2023-02-08T04:07:20;23.60;;;12.33;;
36379;SDS011;22411;53.016;18.632;2023-02-08T04:09:45;20.00;;;11.50;;
36379;SDS011;22411;53.016;18.632;2023-02-08T04:12:12;20.17;;;11.20;;
36379;SDS011;22411;53.016;18.632;2023-02-08T04:14:38;26.47;;;13.70;;
36379;SDS011;22411;53.016;18.632;2023-02-08T04:17:04;23.67;;;14.17;;
36379;SDS011;22411;53.016;18.632;2023-02-08T04:19:30;22.17;;;12.93;;
36379;SDS011;22411;53.016;18.632;2023-02-08T04:21:57;20.73;;;12.93;;
36379;SDS011;22411;53.016;18.632;2023-02-08T04:24:22;23.23;;;12.17;;
36379;SDS011;22411;53.016;18.632;2023-02-08T04:26:49;19.20;;;12.97;;
36379;SDS011;22411;53.016;18.632;2023-02-08T04:29:16;17.60;;;10.53;;
36379;SDS011;22411;53.016;18.632;2023-02-08T04:31:42;18.30;;;11.13;;
36379;SDS011;22411;53.016;18.632;2023-02-08T04:34:08;19.63;;;13.23;;
36379;SDS011;22411;53.016;18.632;2023-02-08T04:36:34;22.70;;;12.37;;
36379;SDS011;22411;53.016;18.632;2023-02-08T04:39:00;23.20;;;12.17;;
36379;SDS011;22411;53.016;18.632;2023-02-08T04:41:26;24.90;;;13.50;;
36379;SDS011;22411;53.016;18.632;2023-02-08T04:43:52;25.07;;;14.90;;
36379;SDS011;22411;53.016;18.632;2023-02-08T04:46:18;21.17;;;13.43;;
36379;SDS011;22411;53.016;18.632;2023-02-08T04:48:44;20.00;;;12.77;;
36379;SDS011;22411;53.016;18.632;2023-02-08T04:51:10;21.87;;;12.80;;
36379;SDS011;22411;53.016;18.632;2023-02-08T04:53:36;20.20;;;12.93;;
36379;SDS011;22411;53.016;18.632;2023-02-08T04:56:02;22.50;;;12.43;;
36379;SDS011;22411;53.016;18.632;2023-02-08T04:58:28;26.03;;;14.13;;
36379;SDS011;22411;53.016;18.632;2023-02-08T05:00:54;26.53;;;14.83;;
36379;SDS011;22411;53.016;18.632;2023-02-08T05:03:20;20.43;;;13.37;;
36379;SDS011;22411;53.016;18.632;2023-02-08T05:05:46;24.30;;;14.20;;
36379;SDS011;22411;53.016;18.632;2023-02-08T05:08:21;25.17;;;14.10;;
36379;SDS011;22411;53.016;18.632;2023-02-08T05:10:47;23.50;;;13.13;;
36379;SDS011;22411;53.016;18.632;2023-02-08T05:13:12;22.00;;;13.40;;
36379;SDS011;22411;53.016;18.632;2023-02-08T05:15:38;23.07;;;13.57;;
36379;SDS011;22411;53.016;18.632;2023-02-08T05:18:04;23.13;;;12.70;;
36379;SDS011;22411;53.016;18.632;2023-02-08T05:20:30;25.33;;;12.97;;
36379;SDS011;22411;53.016;18.632;2023-02-08T05:22:58;24.33;;;12.33;;
36379;SDS011;22411;53.016;18.632;2023-02-08T05:25:24;21.23;;;12.40;;
36379;SDS011;22411;53.016;18.632;2023-02-08T05:27:50;20.30;;;13.10;;
36379;SDS011;22411;53.016;18.632;2023-02-08T05:30:16;25.40;;;12.97;;
36379;SDS011;22411;53.016;18.632;2023-02-08T05:32:42;20.57;;;12.70;;
36379;SDS011;22411;53.016;18.632;2023-02-08T05:35:08;22.40;;;12.67;;
36379;SDS011;22411;53.016;18.632;2023-02-08T05:37:34;22.83;;;12.93;;
36379;SDS011;22411;53.016;18.632;2023-02-08T05:40:00;22.77;;;14.30;;
36379;SDS011;22411;53.016;18.632;2023-02-08T05:42:26;24.80;;;13.57;;
36379;SDS011;22411;53.016;18.632;2023-02-08T05:44:52;24.40;;;13.10;;
36379;SDS011;22411;53.016;18.632;2023-02-08T05:47:18;21.43;;;12.93;;
36379;SDS011;22411;53.016;18.632;2023-02-08T05:49:44;22.87;;;12.67;;
36379;SDS011;22411;53.016;18.632;2023-02-08T05:52:09;26.83;;;14.00;;
36379;SDS011;22411;53.016;18.632;2023-02-08T05:54:36;19.73;;;12.27;;
36379;SDS011;22411;53.016;18.632;2023-02-08T05:57:01;27.80;;;13.97;;
36379;SDS011;22411;53.016;18.632;2023-02-08T05:59:27;30.00;;;15.13;;
36379;SDS011;22411;53.016;18.632;2023-02-08T06:01:53;23.40;;;13.77;;
36379;SDS011;22411;53.016;18.632;2023-02-08T06:04:19;24.37;;;13.73;;
36379;SDS011;22411;53.016;18.632;2023-02-08T06:06:45;26.47;;;14.00;;
36379;SDS011;22411;53.016;18.632;2023-02-08T06:09:11;21.97;;;14.63;;
36379;SDS011;22411;53.016;18.632;2023-02-08T06:11:37;25.60;;;15.17;;
36379;SDS011;22411;53.016;18.632;2023-02-08T06:14:03;28.63;;;14.43;;
36379;SDS011;22411;53.016;18.632;2023-02-08T06:16:29;26.90;;;14.70;;
36379;SDS011;22411;53.016;18.632;2023-02-08T06:18:55;28.70;;;16.10;;
36379;SDS011;22411;53.016;18.632;2023-02-08T06:21:21;27.57;;;15.37;;
36379;SDS011;22411;53.016;18.632;2023-02-08T06:23:49;23.80;;;15.43;;
36379;SDS011;22411;53.016;18.632;2023-02-08T06:26:15;30.13;;;16.00;;
36379;SDS011;22411;53.016;18.632;2023-02-08T06:28:41;33.87;;;16.33;;
36379;SDS011;22411;53.016;18.632;2023-02-08T06:31:06;33.23;;;17.40;;
36379;SDS011;22411;53.016;18.632;2023-02-08T06:33:33;29.87;;;17.67;;
36379;SDS011;22411;53.016;18.632;2023-02-08T06:35:59;32.73;;;18.60;;
36379;SDS011;22411;53.016;18.632;2023-02-08T06:38:25;32.47;;;18.33;;
36379;SDS011;22411;53.016;18.632;2023-02-08T06:40:51;34.03;;;17.63;;
36379;SDS011;22411;53.016;18.632;2023-02-08T06:43:17;29.10;;;17.10;;
36379;SDS011;22411;53.016;18.632;2023-02-08T06:45:43;26.13;;;14.97;;
36379;SDS011;22411;53.016;18.632;2023-02-08T06:48:11;45.07;;;24.87;;
36379;SDS011;22411;53.016;18.632;2023-02-08T06:50:37;43.93;;;20.77;;
36379;SDS011;22411;53.016;18.632;2023-02-08T06:53:03;32.47;;;17.97;;
36379;SDS011;22411;53.016;18.632;2023-02-08T06:55:29;28.37;;;16.63;;
36379;SDS011;22411;53.016;18.632;2023-02-08T06:57:58;28.70;;;16.50;;
36379;SDS011;22411;53.016;18.632;2023-02-08T07:00:24;34.43;;;17.23;;
36379;SDS011;22411;53.016;18.632;2023-02-08T07:02:51;34.63;;;17.67;;
36379;SDS011;22411;53.016;18.632;2023-02-08T07:05:17;39.63;;;19.47;;
36379;SDS011;22411;53.016;18.632;2023-02-08T07:07:45;36.33;;;20.90;;
36379;SDS011;22411;53.016;18.632;2023-02-08T07:10:14;45.87;;;24.33;;
36379;SDS011;22411;53.016;18.632;2023-02-08T07:12:41;46.67;;;27.23;;
36379;SDS011;22411;53.016;18.632;2023-02-08T07:15:07;48.60;;;27.73;;
36379;SDS011;22411;53.016;18.632;2023-02-08T07:17:35;50.77;;;28.57;;
36379;SDS011;22411;53.016;18.632;2023-02-08T07:20:00;57.07;;;31.43;;
36379;SDS011;22411;53.016;18.632;2023-02-08T07:22:27;60.53;;;33.90;;
36379;SDS011;22411;53.016;18.632;2023-02-08T07:24:53;57.70;;;33.27;;
36379;SDS011;22411;53.016;18.632;2023-02-08T07:27:19;63.10;;;35.30;;
36379;SDS011;22411;53.016;18.632;2023-02-08T07:29:45;71.50;;;40.70;;
36379;SDS011;22411;53.016;18.632;2023-02-08T07:32:11;130.97;;;73.83;;
36379;SDS011;22411;53.016;18.632;2023-02-08T07:34:37;108.40;;;61.23;;
36379;SDS011;22411;53.016;18.632;2023-02-08T07:37:05;86.27;;;48.67;;
36379;SDS011;22411;53.016;18.632;2023-02-08T07:39:32;77.10;;;44.63;;
36379;SDS011;22411;53.016;18.632;2023-02-08T07:41:58;71.40;;;40.77;;
36379;SDS011;22411;53.016;18.632;2023-02-08T07:44:24;65.37;;;34.83;;
36379;SDS011;22411;53.016;18.632;2023-02-08T07:46:50;63.27;;;38.50;;
36379;SDS011;22411;53.016;18.632;2023-02-08T07:49:16;63.93;;;37.60;;
36379;SDS011;22411;53.016;18.632;2023-02-08T07:51:42;61.87;;;38.10;;
36379;SDS011;22411;53.016;18.632;2023-02-08T07:54:08;53.17;;;32.07;;
36379;SDS011;22411;53.016;18.632;2023-02-08T07:56:34;55.03;;;33.03;;
36379;SDS011;22411;53.016;18.632;2023-02-08T07:59:00;46.50;;;28.50;;
36379;SDS011;22411;53.016;18.632;2023-02-08T08:01:26;61.50;;;38.23;;
36379;SDS011;22411;53.016;18.632;2023-02-08T08:03:52;71.80;;;45.73;;
36379;SDS011;22411;53.016;18.632;2023-02-08T08:06:19;68.23;;;39.67;;
36379;SDS011;22411;53.016;18.632;2023-02-08T08:08:46;61.27;;;37.87;;
36379;SDS011;22411;53.016;18.632;2023-02-08T08:11:16;57.53;;;32.87;;
36379;SDS011;22411;53.016;18.632;2023-02-08T08:13:43;54.07;;;31.90;;
36379;SDS011;22411;53.016;18.632;2023-02-08T08:16:09;66.83;;;39.63;;
36379;SDS011;22411;53.016;18.632;2023-02-08T08:18:35;63.43;;;39.77;;
36379;SDS011;22411;53.016;18.632;2023-02-08T08:21:02;63.80;;;36.73;;
36379;SDS011;22411;53.016;18.632;2023-02-08T08:23:28;65.43;;;39.37;;
36379;SDS011;22411;53.016;18.632;2023-02-08T08:25:54;70.03;;;43.03;;
36379;SDS011;22411;53.016;18.632;2023-02-08T08:28:20;64.03;;;38.67;;
36379;SDS011;22411;53.016;18.632;2023-02-08T08:30:47;65.53;;;39.20;;
36379;SDS011;22411;53.016;18.632;2023-02-08T08:33:12;63.17;;;35.43;;
36379;SDS011;22411;53.016;18.632;2023-02-08T08:35:39;54.47;;;32.50;;
36379;SDS011;22411;53.016;18.632;2023-02-08T08:38:05;56.10;;;35.07;;
36379;SDS011;22411;53.016;18.632;2023-02-08T08:40:31;54.13;;;31.30;;
36379;SDS011;22411;53.016;18.632;2023-02-08T08:42:57;53.13;;;28.70;;
36379;SDS011;22411;53.016;18.632;2023-02-08T08:45:23;52.03;;;28.43;;
36379;SDS011;22411;53.016;18.632;2023-02-08T08:47:49;50.63;;;28.67;;
36379;SDS011;22411;53.016;18.632;2023-02-08T08:50:15;52.83;;;30.63;;
36379;SDS011;22411;53.016;18.632;2023-02-08T08:52:41;49.43;;;28.40;;
36379;SDS011;22411;53.016;18.632;2023-02-08T08:55:07;53.20;;;31.70;;
36379;SDS011;22411;53.016;18.632;2023-02-08T08:57:33;48.97;;;30.43;;
36379;SDS011;22411;53.016;18.632;2023-02-08T08:59:59;50.97;;;31.00;;
36379;SDS011;22411;53.016;18.632;2023-02-08T09:02:25;49.70;;;32.73;;
36379;SDS011;22411;53.016;18.632;2023-02-08T09:04:51;38.10;;;22.47;;
36379;SDS011;22411;53.016;18.632;2023-02-08T09:07:17;38.43;;;22.50;;
36379;SDS011;22411;53.016;18.632;2023-02-08T09:09:43;38.57;;;21.80;;
36379;SDS011;22411;53.016;18.632;2023-02-08T09:12:12;32.27;;;20.60;;
36379;SDS011;22411;53.016;18.632;2023-02-08T09:14:40;27.47;;;15.77;;
36379;SDS011;22411;53.016;18.632;2023-02-08T09:17:09;27.53;;;18.80;;
36379;SDS011;22411;53.016;18.632;2023-02-08T09:19:36;26.20;;;16.77;;
36379;SDS011;22411;53.016;18.632;2023-02-08T09:22:04;22.70;;;15.70;;
36379;SDS011;22411;53.016;18.632;2023-02-08T09:24:32;23.20;;;14.67;;
36379;SDS011;22411;53.016;18.632;2023-02-08T09:26:58;18.23;;;15.05;;
36379;SDS011;22411;53.016;18.632;2023-02-08T09:29:25;24.95;;;14.77;;
36379;SDS011;22411;53.016;18.632;2023-02-08T09:31:53;20.80;;;14.30;;
36379;SDS011;22411;53.016;18.632;2023-02-08T09:34:20;20.20;;;14.95;;
36379;SDS011;22411;53.016;18.632;2023-02-08T09:36:47;27.10;;;21.90;;
36379;SDS011;22411;53.016;18.632;2023-02-08T09:39:15;25.08;;;21.23;;
36379;SDS011;22411;53.016;18.632;2023-02-08T09:47:12;20.20;;;14.25;;
36379;SDS011;22411;53.016;18.632;2023-02-08T09:57:55;51.00;;;45.60;;
36379;SDS011;22411;53.016;18.632;2023-02-08T10:00:26;15.75;;;11.73;;
36379;SDS011;22411;53.016;18.632;2023-02-08T10:02:58;82.60;;;70.20;;
36379;SDS011;22411;53.016;18.632;2023-02-08T10:05:27;18.98;;;16.40;;
36379;SDS011;22411;53.016;18.632;2023-02-08T10:07:54;18.13;;;15.27;;
36379;SDS011;22411;53.016;18.632;2023-02-08T10:13:28;15.57;;;11.30;;
36379;SDS011;22411;53.016;18.632;2023-02-08T10:16:38;12.63;;;11.07;;
36379;SDS011;22411;53.016;18.632;2023-02-08T10:19:24;12.43;;;8.93;;
36379;SDS011;22411;53.016;18.632;2023-02-08T10:25:10;12.00;;;9.55;;
36379;SDS011;22411;53.016;18.632;2023-02-08T10:33:38;12.57;;;8.40;;
36379;SDS011;22411;53.016;18.632;2023-02-08T10:36:13;10.50;;;8.00;;
36379;SDS011;22411;53.016;18.632;2023-02-08T10:38:43;17.08;;;15.35;;
36379;SDS011;22411;53.016;18.632;2023-02-08T10:41:14;15.68;;;12.10;;
36379;SDS011;22411;53.016;18.632;2023-02-08T10:43:46;11.38;;;9.13;;
36379;SDS011;22411;53.016;18.632;2023-02-08T10:46:37;11.57;;;8.80;;
36379;SDS011;22411;53.016;18.632;2023-02-08T10:49:15;10.82;;;8.82;;
36379;SDS011;22411;53.016;18.632;2023-02-08T10:51:50;13.90;;;12.50;;
36379;SDS011;22411;53.016;18.632;2023-02-08T10:54:17;10.45;;;8.35;;
36379;SDS011;22411;53.016;18.632;2023-02-08T10:59:14;14.07;;;11.02;;
36379;SDS011;22411;53.016;18.632;2023-02-08T11:01:52;15.75;;;12.60;;
36379;SDS011;22411;53.016;18.632;2023-02-08T11:04:20;18.60;;;13.70;;
36379;SDS011;22411;53.016;18.632;2023-02-08T11:06:47;27.27;;;19.55;;
36379;SDS011;22411;53.016;18.632;2023-02-08T11:09:22;10.15;;;8.30;;
36379;SDS011;22411;53.016;18.632;2023-02-08T11:11:49;10.43;;;8.40;;
36379;SDS011;22411;53.016;18.632;2023-02-08T11:14:27;11.13;;;8.32;;
36379;SDS011;22411;53.016;18.632;2023-02-08T11:16:59;19.15;;;17.33;;
36379;SDS011;22411;53.016;18.632;2023-02-08T11:21:59;13.88;;;10.93;;
36379;SDS011;22411;53.016;18.632;2023-02-08T11:24:29;13.30;;;11.15;;
36379;SDS011;22411;53.016;18.632;2023-02-08T11:27:17;12.18;;;10.02;;
36379;SDS011;22411;53.016;18.632;2023-02-08T11:30:17;12.07;;;9.40;;
36379;SDS011;22411;53.016;18.632;2023-02-08T11:32:49;13.95;;;12.38;;
36379;SDS011;22411;53.016;18.632;2023-02-08T11:35:39;37.58;;;28.42;;
36379;SDS011;22411;53.016;18.632;2023-02-08T11:38:14;14.73;;;12.30;;
36379;SDS011;22411;53.016;18.632;2023-02-08T11:40:43;12.15;;;9.70;;
36379;SDS011;22411;53.016;18.632;2023-02-08T11:43:27;13.75;;;10.02;;
36379;SDS011;22411;53.016;18.632;2023-02-08T11:45:55;10.95;;;8.82;;
36379;SDS011;22411;53.016;18.632;2023-02-08T11:48:31;9.32;;;7.90;;
36379;SDS011;22411;53.016;18.632;2023-02-08T11:51:04;14.48;;;11.73;;
36379;SDS011;22411;53.016;18.632;2023-02-08T11:53:35;9.30;;;7.80;;
36379;SDS011;22411;53.016;18.632;2023-02-08T11:56:06;18.88;;;15.85;;
36379;SDS011;22411;53.016;18.632;2023-02-08T11:58:40;14.77;;;12.60;;
36379;SDS011;22411;53.016;18.632;2023-02-08T12:01:20;17.88;;;14.20;;
36379;SDS011;22411;53.016;18.632;2023-02-08T12:03:47;15.00;;;11.30;;
36379;SDS011;22411;53.016;18.632;2023-02-08T12:14:25;33.08;;;22.58;;
36379;SDS011;22411;53.016;18.632;2023-02-08T12:41:31;22.05;;;16.65;;
36379;SDS011;22411;53.016;18.632;2023-02-08T12:44:06;32.33;;;21.08;;
36379;SDS011;22411;53.016;18.632;2023-02-08T12:46:54;21.27;;;15.57;;
36379;SDS011;22411;53.016;18.632;2023-02-08T12:49:31;24.17;;;18.15;;
36379;SDS011;22411;53.016;18.632;2023-02-08T12:52:17;17.50;;;13.18;;
36379;SDS011;22411;53.016;18.632;2023-02-08T12:54:57;17.50;;;12.90;;
36379;SDS011;22411;53.016;18.632;2023-02-08T12:57:28;23.38;;;18.00;;
36379;SDS011;22411;53.016;18.632;2023-02-08T12:59:57;18.88;;;14.70;;
36379;SDS011;22411;53.016;18.632;2023-02-08T13:02:38;16.10;;;12.15;;
36379;SDS011;22411;53.016;18.632;2023-02-08T13:05:18;17.33;;;13.10;;
36379;SDS011;22411;53.016;18.632;2023-02-08T13:07:47;19.40;;;15.85;;
36379;SDS011;22411;53.016;18.632;2023-02-08T13:12:55;20.23;;;15.50;;
36379;SDS011;22411;53.016;18.632;2023-02-08T13:15:34;16.30;;;11.85;;
36379;SDS011;22411;53.016;18.632;2023-02-08T13:18:04;20.15;;;11.57;;
36379;SDS011;22411;53.016;18.632;2023-02-08T13:25:51;16.48;;;11.07;;
36379;SDS011;22411;53.016;18.632;2023-02-08T13:28:21;20.38;;;13.20;;
36379;SDS011;22411;53.016;18.632;2023-02-08T13:31:22;22.98;;;14.73;;
36379;SDS011;22411;53.016;18.632;2023-02-08T13:34:06;26.70;;;17.90;;
36379;SDS011;22411;53.016;18.632;2023-02-08T13:36:50;17.80;;;12.38;;
36379;SDS011;22411;53.016;18.632;2023-02-08T13:39:36;60.17;;;27.52;;
36379;SDS011;22411;53.016;18.632;2023-02-08T13:42:29;23.27;;;12.57;;
36379;SDS011;22411;53.016;18.632;2023-02-08T13:44:57;26.90;;;16.33;;
36379;SDS011;22411;53.016;18.632;2023-02-08T13:49:52;28.90;;;17.48;;
36379;SDS011;22411;53.016;18.632;2023-02-08T13:52:57;29.27;;;16.90;;
36379;SDS011;22411;53.016;18.632;2023-02-08T13:58:01;39.80;;;19.58;;
36379;SDS011;22411;53.016;18.632;2023-02-08T14:03:27;27.58;;;14.90;;
36379;SDS011;22411;53.016;18.632;2023-02-08T14:05:58;31.45;;;19.85;;
36379;SDS011;22411;53.016;18.632;2023-02-08T14:11:31;25.80;;;16.27;;
36379;SDS011;22411;53.016;18.632;2023-02-08T14:14:19;30.37;;;19.30;;
36379;SDS011;22411;53.016;18.632;2023-02-08T14:19:33;23.10;;;13.77;;
36379;SDS011;22411;53.016;18.632;2023-02-08T14:22:02;24.02;;;15.45;;
36379;SDS011;22411;53.016;18.632;2023-02-08T14:24:41;25.60;;;16.93;;
36379;SDS011;22411;53.016;18.632;2023-02-08T14:27:17;34.80;;;23.27;;
36379;SDS011;22411;53.016;18.632;2023-02-08T14:29:58;30.90;;;18.77;;
36379;SDS011;22411;53.016;18.632;2023-02-08T14:32:44;27.23;;;18.50;;
36379;SDS011;22411;53.016;18.632;2023-02-08T14:35:18;27.57;;;15.60;;
36379;SDS011;22411;53.016;18.632;2023-02-08T14:37:48;48.00;;;27.80;;
36379;SDS011;22411;53.016;18.632;2023-02-08T14:42:54;49.67;;;32.70;;
36379;SDS011;22411;53.016;18.632;2023-02-08T14:45:30;26.97;;;17.80;;
36379;SDS011;22411;53.016;18.632;2023-02-08T14:48:05;34.97;;;21.70;;
36379;SDS011;22411;53.016;18.632;2023-02-08T14:53:40;33.57;;;21.10;;
36379;SDS011;22411;53.016;18.632;2023-02-08T14:56:38;33.13;;;21.20;;
36379;SDS011;22411;53.016;18.632;2023-02-08T14:59:15;37.27;;;21.10;;
36379;SDS011;22411;53.016;18.632;2023-02-08T15:01:45;41.28;;;24.70;;
36379;SDS011;22411;53.016;18.632;2023-02-08T15:04:14;34.60;;;22.03;;
36379;SDS011;22411;53.016;18.632;2023-02-08T15:09:30;38.43;;;24.27;;
36379;SDS011;22411;53.016;18.632;2023-02-08T15:12:04;32.03;;;20.33;;
36379;SDS011;22411;53.016;18.632;2023-02-08T15:14:35;43.97;;;27.20;;
36379;SDS011;22411;53.016;18.632;2023-02-08T15:17:05;37.60;;;21.60;;
36379;SDS011;22411;53.016;18.632;2023-02-08T15:19:43;42.03;;;21.93;;
36379;SDS011;22411;53.016;18.632;2023-02-08T15:24:50;43.60;;;21.97;;
36379;SDS011;22411;53.016;18.632;2023-02-08T15:27:20;42.93;;;23.43;;
36379;SDS011;22411;53.016;18.632;2023-02-08T15:29:50;43.53;;;23.10;;
36379;SDS011;22411;53.016;18.632;2023-02-08T15:32:18;42.00;;;24.63;;
36379;SDS011;22411;53.016;18.632;2023-02-08T15:37:19;44.03;;;24.07;;
36379;SDS011;22411;53.016;18.632;2023-02-08T15:39:55;44.83;;;23.63;;
36379;SDS011;22411;53.016;18.632;2023-02-08T15:42:24;50.93;;;26.47;;
36379;SDS011;22411;53.016;18.632;2023-02-08T15:44:53;53.23;;;29.37;;
36379;SDS011;22411;53.016;18.632;2023-02-08T15:50:00;39.37;;;23.73;;
36379;SDS011;22411;53.016;18.632;2023-02-08T15:52:29;45.90;;;24.00;;
36379;SDS011;22411;53.016;18.632;2023-02-08T15:54:57;49.63;;;25.00;;
36379;SDS011;22411;53.016;18.632;2023-02-08T16:00:18;47.40;;;24.77;;
36379;SDS011;22411;53.016;18.632;2023-02-08T16:02:49;68.70;;;35.70;;
36379;SDS011;22411;53.016;18.632;2023-02-08T16:05:20;65.90;;;34.37;;
36379;SDS011;22411;53.016;18.632;2023-02-08T16:07:48;62.07;;;34.30;;
36379;SDS011;22411;53.016;18.632;2023-02-08T16:10:38;58.40;;;32.17;;
36379;SDS011;22411;53.016;18.632;2023-02-08T16:13:15;60.37;;;38.77;;
36379;SDS011;22411;53.016;18.632;2023-02-08T16:15:47;55.57;;;31.70;;
36379;SDS011;22411;53.016;18.632;2023-02-08T16:18:33;49.40;;;25.77;;
36379;SDS011;22411;53.016;18.632;2023-02-08T16:21:04;56.87;;;35.00;;
36379;SDS011;22411;53.016;18.632;2023-02-08T16:23:59;60.17;;;31.70;;
36379;SDS011;22411;53.016;18.632;2023-02-08T16:26:33;54.67;;;27.87;;
36379;SDS011;22411;53.016;18.632;2023-02-08T16:29:06;53.87;;;27.10;;
36379;SDS011;22411;53.016;18.632;2023-02-08T16:31:41;47.50;;;26.03;;
36379;SDS011;22411;53.016;18.632;2023-02-08T16:34:14;63.37;;;37.13;;
36379;SDS011;22411;53.016;18.632;2023-02-08T16:36:45;68.57;;;37.57;;
36379;SDS011;22411;53.016;18.632;2023-02-08T16:46:51;136.53;;;64.27;;
36379;SDS011;22411;53.016;18.632;2023-02-08T16:49:17;107.73;;;54.20;;
36379;SDS011;22411;53.016;18.632;2023-02-08T16:51:44;146.40;;;76.17;;